sensor_id;sensor_type;location;lat;lon;timestamp;pressure;altitude;pressure_sealevel;temperature;humidity
6500;BME280;3283;52.330;9.772;2022-09-25T00:00:46;100530.84;;;12.88;100.00
6500;BME280;3283;52.330;9.772;2022-09-25T00:03:14;100539.69;;;12.87;100.00
6500;BME280;3283;52.330;9.772;2022-09-25T00:05:41;100531.84;;;12.82;100.00
6500;BME280;3283;52.330;9.772;2022-09-25T00:08:08;100539.81;;;12.81;100.00
6500;BME280;3283;52.330;9.772;2022-09-25T00:10:42;100507.03;;;12.52;100.00
6500;BME280;3283;52.330;9.772;2022-09-25T00:13:09;100529.75;;;12.59;100.00
6500;BME280;3283;52.330;9.772;2022-09-25T00:15:34;100526.50;;;12.47;100.00
6500;BME280;3283;52.330;9.772;2022-09-25T00:18:00;100526.50;;;12.48;100.00
6500;BME280;3283;52.330;9.772;2022-09-25T00:20:26;100514.97;;;12.52;100.00
6500;BME280;3283;52.330;9.772;2022-09-25T00:22:51;100528.09;;;12.55;100.00
6500;BME280;3283;52.330;9.772;2022-09-25T00:25:19;100522.06;;;12.50;100.00
6500;BME280;3283;52.330;9.772;2022-09-25T00:27:45;100530.09;;;12.44;100.00
6500;BME280;3283;52.330;9.772;2022-09-25T00:30:13;100521.41;;;12.39;100.00
6500;BME280;3283;52.330;9.772;2022-09-25T00:32:39;100532.88;;;12.38;100.00
6500;BME280;3283;52.330;9.772;2022-09-25T00:35:05;100533.69;;;12.40;100.00
6500;BME280;3283;52.330;9.772;2022-09-25T00:37:35;100512.75;;;12.34;100.00
6500;BME280;3283;52.330;9.772;2022-09-25T00:40:02;100524.91;;;12.41;100.00
6500;BME280;3283;52.330;9.772;2022-09-25T00:42:27;100510.97;;;12.34;100.00
6500;BME280;3283;52.330;9.772;2022-09-25T00:44:58;100518.75;;;12.39;100.00
6500;BME280;3283;52.330;9.772;2022-09-25T00:47:48;100519.81;;;12.32;100.00
6500;BME280;3283;52.330;9.772;2022-09-25T00:52:42;100519.06;;;12.25;100.00
6500;BME280;3283;52.330;9.772;2022-09-25T00:55:08;100528.63;;;12.31;100.00
6500;BME280;3283;52.330;9.772;2022-09-25T00:57:35;100528.50;;;12.37;100.00
6500;BME280;3283;52.330;9.772;2022-09-25T01:00:09;100539.91;;;12.37;100.00
6500;BME280;3283;52.330;9.772;2022-09-25T01:02:40;100528.63;;;12.31;100.00
6500;BME280;3283;52.330;9.772;2022-09-25T01:05:12;100520.22;;;12.14;100.00
6500;BME280;3283;52.330;9.772;2022-09-25T01:07:41;100533.28;;;12.18;100.00
6500;BME280;3283;52.330;9.772;2022-09-25T01:10:08;100523.09;;;12.01;100.00
6500;BME280;3283;52.330;9.772;2022-09-25T01:12:37;100526.53;;;12.06;100.00
6500;BME280;3283;52.330;9.772;2022-09-25T01:15:08;100526.34;;;12.14;100.00
6500;BME280;3283;52.330;9.772;2022-09-25T01:17:54;100537.06;;;12.06;100.00
6500;BME280;3283;52.330;9.772;2022-09-25T01:31:31;100522.97;;;12.07;100.00
6500;BME280;3283;52.330;9.772;2022-09-25T01:34:11;100523.94;;;12.03;100.00
6500;BME280;3283;52.330;9.772;2022-09-25T01:36:47;100524.63;;;12.12;100.00
6500;BME280;3283;52.330;9.772;2022-09-25T01:39:29;100531.69;;;12.11;100.00
6500;BME280;3283;52.330;9.772;2022-09-25T01:42:05;100529.94;;;12.10;100.00
6500;BME280;3283;52.330;9.772;2022-09-25T01:44:41;100513.50;;;11.99;100.00
6500;BME280;3283;52.330;9.772;2022-09-25T01:47:23;100537.16;;;12.02;100.00
6500;BME280;3283;52.330;9.772;2022-09-25T01:49:55;100536.22;;;12.04;100.00
6500;BME280;3283;52.330;9.772;2022-09-25T01:52:27;100524.91;;;11.98;100.00
6500;BME280;3283;52.330;9.772;2022-09-25T01:55:05;100521.53;;;11.93;100.00
6500;BME280;3283;52.330;9.772;2022-09-25T01:57:47;100531.03;;;12.00;100.00
6500;BME280;3283;52.330;9.772;2022-09-25T02:00:18;100531.81;;;12.05;100.00
6500;BME280;3283;52.330;9.772;2022-09-25T02:02:53;100537.16;;;12.02;100.00
6500;BME280;3283;52.330;9.772;2022-09-25T02:05:27;100531.13;;;11.95;100.00
6500;BME280;3283;52.330;9.772;2022-09-25T02:08:04;100533.72;;;11.98;100.00
6500;BME280;3283;52.330;9.772;2022-09-25T02:10:36;100531.13;;;11.95;100.00
6500;BME280;3283;52.330;9.772;2022-09-25T02:13:10;100528.56;;;11.92;100.00
6500;BME280;3283;52.330;9.772;2022-09-25T02:15:58;100527.59;;;11.96;100.00
6500;BME280;3283;52.330;9.772;2022-09-25T02:18:27;100521.53;;;11.93;100.00
6500;BME280;3283;52.330;9.772;2022-09-25T02:26:23;100510.38;;;11.77;100.00
6500;BME280;3283;52.330;9.772;2022-09-25T02:28:50;100517.38;;;11.78;100.00
6500;BME280;3283;52.330;9.772;2022-09-25T02:31:18;100513.09;;;11.72;100.00
6500;BME280;3283;52.330;9.772;2022-09-25T02:33:46;100527.97;;;11.75;100.00
6500;BME280;3283;52.330;9.772;2022-09-25T02:36:17;100530.56;;;11.76;100.00
6500;BME280;3283;52.330;9.772;2022-09-25T02:38:43;100528.00;;;11.73;100.00
6500;BME280;3283;52.330;9.772;2022-09-25T02:41:18;100527.97;;;11.75;100.00
6500;BME280;3283;52.330;9.772;2022-09-25T02:44:01;100541.19;;;11.73;100.00
6500;BME280;3283;52.330;9.772;2022-09-25T02:46:52;100527.97;;;11.75;100.00
6500;BME280;3283;52.330;9.772;2022-09-25T02:49:37;100534.94;;;11.79;100.00
6500;BME280;3283;52.330;9.772;2022-09-25T02:52:15;100521.94;;;11.68;100.00
6500;BME280;3283;52.330;9.772;2022-09-25T02:55:00;100517.66;;;11.63;100.00
6500;BME280;3283;52.330;9.772;2022-09-25T02:57:39;100518.47;;;11.66;100.00
6500;BME280;3283;52.330;9.772;2022-09-25T03:00:08;100525.38;;;11.73;100.00
6500;BME280;3283;52.330;9.772;2022-09-25T03:02:35;100524.63;;;11.67;100.00
6500;BME280;3283;52.330;9.772;2022-09-25T03:05:02;100526.34;;;11.68;100.00
6500;BME280;3283;52.330;9.772;2022-09-25T03:07:29;100506.31;;;11.59;100.00
6500;BME280;3283;52.330;9.772;2022-09-25T03:10:16;100526.34;;;11.68;100.00
6500;BME280;3283;52.330;9.772;2022-09-25T03:12:42;100523.72;;;11.68;100.00
6500;BME280;3283;52.330;9.772;2022-09-25T03:15:09;100503.72;;;11.58;100.00
6500;BME280;3283;52.330;9.772;2022-09-25T03:17:35;100523.75;;;11.66;100.00
6500;BME280;3283;52.330;9.772;2022-09-25T03:20:01;100524.69;;;11.64;100.00
6500;BME280;3283;52.330;9.772;2022-09-25T03:22:27;100504.59;;;11.58;100.00
6500;BME280;3283;52.330;9.772;2022-09-25T03:24:52;100520.22;;;11.67;100.00
6500;BME280;3283;52.330;9.772;2022-09-25T03:27:18;100523.69;;;11.71;100.00
6500;BME280;3283;52.330;9.772;2022-09-25T03:29:45;100526.25;;;11.74;100.00
6500;BME280;3283;52.330;9.772;2022-09-25T03:32:14;100512.38;;;11.64;100.00
6500;BME280;3283;52.330;9.772;2022-09-25T03:34:39;100528.84;;;11.75;100.00
6500;BME280;3283;52.330;9.772;2022-09-25T03:37:05;100523.53;;;11.78;100.00
6500;BME280;3283;52.330;9.772;2022-09-25T03:39:30;100527.91;;;11.81;100.00
6500;BME280;3283;52.330;9.772;2022-09-25T03:41:56;100518.28;;;11.75;100.00
6500;BME280;3283;52.330;9.772;2022-09-25T03:44:21;100506.97;;;11.72;100.00
6500;BME280;3283;52.330;9.772;2022-09-25T03:46:47;100526.19;;;11.75;100.00
6500;BME280;3283;52.330;9.772;2022-09-25T03:49:12;100522.81;;;11.69;100.00
6500;BME280;3283;52.330;9.772;2022-09-25T03:51:38;100517.50;;;11.72;100.00
6500;BME280;3283;52.330;9.772;2022-09-25T03:54:05;100519.16;;;11.76;100.00
6500;BME280;3283;52.330;9.772;2022-09-25T03:56:30;100519.16;;;11.77;100.00
6500;BME280;3283;52.330;9.772;2022-09-25T03:58:57;100516.56;;;11.74;100.00
6500;BME280;3283;52.330;9.772;2022-09-25T04:01:24;100519.13;;;11.79;100.00
6500;BME280;3283;52.330;9.772;2022-09-25T04:03:50;100505.25;;;11.68;100.00
6500;BME280;3283;52.330;9.772;2022-09-25T04:06:18;100513.88;;;11.77;100.00
6500;BME280;3283;52.330;9.772;2022-09-25T04:08:45;100519.13;;;11.80;100.00
6500;BME280;3283;52.330;9.772;2022-09-25T04:11:12;100507.63;;;11.83;100.00
6500;BME280;3283;52.330;9.772;2022-09-25T04:13:37;100511.13;;;11.85;100.00
6500;BME280;3283;52.330;9.772;2022-09-25T04:16:06;100510.28;;;11.83;100.00
6500;BME280;3283;52.330;9.772;2022-09-25T04:18:32;100512.03;;;11.84;100.00
6500;BME280;3283;52.330;9.772;2022-09-25T04:20:59;100505.00;;;11.85;100.00
6500;BME280;3283;52.330;9.772;2022-09-25T04:23:26;100512.03;;;11.84;100.00
6500;BME280;3283;52.330;9.772;2022-09-25T04:25:52;100510.28;;;11.83;100.00
6500;BME280;3283;52.330;9.772;2022-09-25T04:28:19;100517.31;;;11.82;100.00
6500;BME280;3283;52.330;9.772;2022-09-25T04:30:45;100501.56;;;11.78;100.00
6500;BME280;3283;52.330;9.772;2022-09-25T04:33:11;100510.31;;;11.80;100.00
6500;BME280;3283;52.330;9.772;2022-09-25T04:35:55;100506.81;;;11.81;100.00
6500;BME280;3283;52.330;9.772;2022-09-25T04:38:21;100503.22;;;11.85;100.00
6500;BME280;3283;52.330;9.772;2022-09-25T04:40:47;100509.25;;;11.90;100.00
6500;BME280;3283;52.330;9.772;2022-09-25T04:43:12;100504.84;;;11.92;100.00
6500;BME280;3283;52.330;9.772;2022-09-25T04:45:37;100506.59;;;11.90;100.00
6500;BME280;3283;52.330;9.772;2022-09-25T04:48:03;100510.19;;;11.88;100.00
6500;BME280;3283;52.330;9.772;2022-09-25T04:50:30;100507.47;;;11.91;100.00
6500;BME280;3283;52.330;9.772;2022-09-25T04:52:57;100511.84;;;11.93;100.00
6500;BME280;3283;52.330;9.772;2022-09-25T04:55:23;100508.28;;;11.94;100.00
6500;BME280;3283;52.330;9.772;2022-09-25T04:58:00;100505.63;;;11.96;100.00
6500;BME280;3283;52.330;9.772;2022-09-25T05:00:28;100510.00;;;11.97;100.00
6500;BME280;3283;52.330;9.772;2022-09-25T05:02:54;100500.59;;;11.85;100.00
6500;BME280;3283;52.330;9.772;2022-09-25T05:05:19;100500.66;;;11.80;100.00
6500;BME280;3283;52.330;9.772;2022-09-25T05:07:52;100511.97;;;11.87;100.00
6500;BME280;3283;52.330;9.772;2022-09-25T05:10:19;100495.38;;;11.79;100.00
6500;BME280;3283;52.330;9.772;2022-09-25T05:12:45;100513.69;;;11.88;100.00
6500;BME280;3283;52.330;9.772;2022-09-25T05:15:12;100522.47;;;11.89;100.00
6500;BME280;3283;52.330;9.772;2022-09-25T05:17:37;100516.44;;;11.82;100.00
6500;BME280;3283;52.330;9.772;2022-09-25T05:20:03;100512.94;;;11.80;100.00
6500;BME280;3283;52.330;9.772;2022-09-25T05:22:28;100511.22;;;11.80;100.00
6500;BME280;3283;52.330;9.772;2022-09-25T05:24:54;100512.06;;;11.81;100.00
6500;BME280;3283;52.330;9.772;2022-09-25T05:27:19;100514.66;;;11.84;100.00
6500;BME280;3283;52.330;9.772;2022-09-25T05:29:46;100496.44;;;11.70;100.00
6500;BME280;3283;52.330;9.772;2022-09-25T05:32:12;100511.25;;;11.77;100.00
6500;BME280;3283;52.330;9.772;2022-09-25T05:34:38;100525.97;;;11.89;100.00
6500;BME280;3283;52.330;9.772;2022-09-25T05:37:03;100525.94;;;11.91;100.00
6500;BME280;3283;52.330;9.772;2022-09-25T05:39:29;100522.44;;;11.90;100.00
6500;BME280;3283;52.330;9.772;2022-09-25T05:41:54;100519.75;;;11.93;100.00
6500;BME280;3283;52.330;9.772;2022-09-25T05:44:19;100503.34;;;11.76;100.00
6500;BME280;3283;52.330;9.772;2022-09-25T05:46:45;100518.22;;;11.81;100.00
6500;BME280;3283;52.330;9.772;2022-09-25T05:49:11;100516.44;;;11.82;100.00
6500;BME280;3283;52.330;9.772;2022-09-25T05:51:36;100501.72;;;11.70;100.00
6500;BME280;3283;52.330;9.772;2022-09-25T05:54:02;100518.19;;;11.83;100.00
6500;BME280;3283;52.330;9.772;2022-09-25T05:56:27;100517.34;;;11.81;100.00
6500;BME280;3283;52.330;9.772;2022-09-25T05:58:53;100519.03;;;11.83;100.00
6500;BME280;3283;52.330;9.772;2022-09-25T06:01:19;100523.50;;;11.81;100.00
6500;BME280;3283;52.330;9.772;2022-09-25T06:03:45;100513.81;;;11.82;100.00
6500;BME280;3283;52.330;9.772;2022-09-25T06:06:10;100518.22;;;11.80;100.00
6500;BME280;3283;52.330;9.772;2022-09-25T06:08:36;100517.31;;;11.84;100.00
6500;BME280;3283;52.330;9.772;2022-09-25T06:11:03;100520.69;;;11.89;100.00
6500;BME280;3283;52.330;9.772;2022-09-25T06:13:30;100499.84;;;11.77;100.00
6500;BME280;3283;52.330;9.772;2022-09-25T06:15:57;100518.88;;;11.93;100.00
6500;BME280;3283;52.330;9.772;2022-09-25T06:18:23;100526.75;;;11.94;100.00
6500;BME280;3283;52.330;9.772;2022-09-25T06:20:49;100515.38;;;11.92;100.00
6500;BME280;3283;52.330;9.772;2022-09-25T06:23:16;100527.66;;;11.93;100.00
6500;BME280;3283;52.330;9.772;2022-09-25T06:25:43;100513.50;;;11.97;100.00
6500;BME280;3283;52.330;9.772;2022-09-25T06:28:09;100523.03;;;12.04;100.00
6500;BME280;3283;52.330;9.772;2022-09-25T06:30:36;100509.84;;;12.04;100.00
6500;BME280;3283;52.330;9.772;2022-09-25T06:33:08;100518.44;;;12.14;100.00
6500;BME280;3283;52.330;9.772;2022-09-25T06:35:44;100518.28;;;12.22;100.00
6500;BME280;3283;52.330;9.772;2022-09-25T06:38:11;100500.75;;;12.18;100.00
6500;BME280;3283;52.330;9.772;2022-09-25T06:40:36;100495.34;;;12.24;100.00
6500;BME280;3283;52.330;9.772;2022-09-25T06:43:05;100514.47;;;12.35;100.00
6500;BME280;3283;52.330;9.772;2022-09-25T06:45:33;100513.56;;;12.36;100.00
6500;BME280;3283;52.330;9.772;2022-09-25T06:48:09;100521.44;;;12.37;100.00
6500;BME280;3283;52.330;9.772;2022-09-25T06:50:38;100521.31;;;12.44;100.00
6500;BME280;3283;52.330;9.772;2022-09-25T06:53:04;100519.53;;;12.44;100.00
6500;BME280;3283;52.330;9.772;2022-09-25T06:55:30;100522.25;;;12.41;100.00
6500;BME280;3283;52.330;9.772;2022-09-25T06:58:00;100514.34;;;12.41;100.00
6500;BME280;3283;52.330;9.772;2022-09-25T07:00:26;100518.84;;;12.36;100.00
6500;BME280;3283;52.330;9.772;2022-09-25T07:02:52;100518.75;;;12.41;100.00
6500;BME280;3283;52.330;9.772;2022-09-25T07:05:37;100515.22;;;12.40;100.00
6500;BME280;3283;52.330;9.772;2022-09-25T07:08:03;100516.94;;;12.43;100.00
6500;BME280;3283;52.330;9.772;2022-09-25T07:10:28;100499.44;;;12.38;100.00
6500;BME280;3283;52.330;9.772;2022-09-25T07:12:54;100513.09;;;12.57;100.00
6500;BME280;3283;52.330;9.772;2022-09-25T07:15:20;100512.72;;;12.73;100.00
6500;BME280;3283;52.330;9.772;2022-09-25T07:17:46;100513.41;;;12.81;100.00
6500;BME280;3283;52.330;9.772;2022-09-25T07:20:12;100514.19;;;12.86;100.00
6500;BME280;3283;52.330;9.772;2022-09-25T07:22:40;100505.53;;;12.79;100.00
6500;BME280;3283;52.330;9.772;2022-09-25T07:25:06;100513.41;;;12.81;100.00
6500;BME280;3283;52.330;9.772;2022-09-25T07:27:32;100518.84;;;12.75;100.00
6500;BME280;3283;52.330;9.772;2022-09-25T07:29:57;100515.47;;;12.70;100.00
6500;BME280;3283;52.330;9.772;2022-09-25T07:32:23;100521.47;;;12.75;100.00
6500;BME280;3283;52.330;9.772;2022-09-25T07:34:49;100516.47;;;12.64;100.00
6500;BME280;3283;52.330;9.772;2022-09-25T07:37:16;100525.25;;;12.64;100.00
6500;BME280;3283;52.330;9.772;2022-09-25T07:39:42;100522.59;;;12.64;100.00
6500;BME280;3283;52.330;9.772;2022-09-25T07:42:07;100532.34;;;12.62;100.00
6500;BME280;3283;52.330;9.772;2022-09-25T07:44:33;100529.75;;;12.59;100.00
6500;BME280;3283;52.330;9.772;2022-09-25T07:46:59;100523.59;;;12.59;100.00
6500;BME280;3283;52.330;9.772;2022-09-25T07:49:25;100518.47;;;12.53;100.00
6500;BME280;3283;52.330;9.772;2022-09-25T07:51:51;100527.81;;;12.68;100.00
6500;BME280;3283;52.330;9.772;2022-09-25T07:54:17;100516.25;;;12.73;100.00
6500;BME280;3283;52.330;9.772;2022-09-25T07:56:42;100517.78;;;12.82;100.00
6500;BME280;3283;52.330;9.772;2022-09-25T07:59:08;100528.94;;;12.95;100.00
6500;BME280;3283;52.330;9.772;2022-09-25T08:01:33;100528.13;;;12.92;100.00
6500;BME280;3283;52.330;9.772;2022-09-25T08:03:59;100521.47;;;12.75;100.00
6500;BME280;3283;52.330;9.772;2022-09-25T08:06:24;100524.97;;;12.77;100.00
6500;BME280;3283;52.330;9.772;2022-09-25T08:08:50;100531.91;;;12.81;100.00
6500;BME280;3283;52.330;9.772;2022-09-25T08:11:16;100527.63;;;12.77;100.00
6500;BME280;3283;52.330;9.772;2022-09-25T08:13:42;100549.38;;;12.86;100.00
6500;BME280;3283;52.330;9.772;2022-09-25T08:16:16;100541.47;;;12.86;100.00
6500;BME280;3283;52.330;9.772;2022-09-25T08:18:43;100545.97;;;12.83;100.00
6500;BME280;3283;52.330;9.772;2022-09-25T08:21:11;100546.06;;;12.78;100.00
6500;BME280;3283;52.330;9.772;2022-09-25T08:23:41;100533.09;;;12.68;100.00
6500;BME280;3283;52.330;9.772;2022-09-25T08:26:06;100547.19;;;12.67;100.00
6500;BME280;3283;52.330;9.772;2022-09-25T08:28:32;100542.91;;;12.61;100.00
6500;BME280;3283;52.330;9.772;2022-09-25T08:31:01;100552.78;;;12.53;100.00
6500;BME280;3283;52.330;9.772;2022-09-25T08:33:28;100554.69;;;12.46;100.00
6500;BME280;3283;52.330;9.772;2022-09-25T08:36:01;100553.94;;;12.40;100.00
6500;BME280;3283;52.330;9.772;2022-09-25T08:38:28;100553.31;;;12.28;100.00
6500;BME280;3283;52.330;9.772;2022-09-25T08:43:30;100541.03;;;12.26;100.00
6500;BME280;3283;52.330;9.772;2022-09-25T08:45:59;100552.03;;;12.46;100.00
6500;BME280;3283;52.330;9.772;2022-09-25T08:48:55;100558.19;;;12.48;100.00
6500;BME280;3283;52.330;9.772;2022-09-25T08:51:33;100550.91;;;12.58;100.00
6500;BME280;3283;52.330;9.772;2022-09-25T08:54:01;100540.66;;;12.44;100.00
6500;BME280;3283;52.330;9.772;2022-09-25T08:56:34;100550.09;;;12.54;100.00
6500;BME280;3283;52.330;9.772;2022-09-25T08:59:29;100549.16;;;12.58;100.00
6500;BME280;3283;52.330;9.772;2022-09-25T09:07:13;100558.44;;;12.75;100.00
6500;BME280;3283;52.330;9.772;2022-09-25T09:09:44;100556.66;;;12.77;100.00
6500;BME280;3283;52.330;9.772;2022-09-25T09:12:22;100566.88;;;12.92;100.00
6500;BME280;3283;52.330;9.772;2022-09-25T09:14:56;100560.75;;;12.90;100.00
6500;BME280;3283;52.330;9.772;2022-09-25T09:17:27;100560.78;;;12.88;100.00
6500;BME280;3283;52.330;9.772;2022-09-25T09:19:59;100557.47;;;12.79;100.00
6500;BME280;3283;52.330;9.772;2022-09-25T09:22:32;100561.69;;;12.87;100.00
6500;BME280;3283;52.330;9.772;2022-09-25T09:25:08;100563.28;;;12.95;100.00
6500;BME280;3283;52.330;9.772;2022-09-25T09:47:24;100556.84;;;13.06;100.00
6500;BME280;3283;52.330;9.772;2022-09-25T09:50:38;100543.78;;;13.00;100.00
6500;BME280;3283;52.330;9.772;2022-09-25T09:53:12;100550.34;;;13.21;100.00
6500;BME280;3283;52.330;9.772;2022-09-25T09:55:47;100555.25;;;13.36;100.00
6500;BME280;3283;52.330;9.772;2022-09-25T09:58:22;100550.25;;;13.58;100.00
6500;BME280;3283;52.330;9.772;2022-09-25T10:00:51;100548.41;;;13.62;100.00
6500;BME280;3283;52.330;9.772;2022-09-25T10:03:23;100547.78;;;13.52;100.00
6500;BME280;3283;52.330;9.772;2022-09-25T10:05:53;100543.78;;;13.36;100.00
6500;BME280;3283;52.330;9.772;2022-09-25T10:08:20;100530.13;;;13.20;100.00
6500;BME280;3283;52.330;9.772;2022-09-25T10:10:50;100549.09;;;13.36;100.00
6500;BME280;3283;52.330;9.772;2022-09-25T10:13:24;100548.13;;;13.38;100.00
6500;BME280;3283;52.330;9.772;2022-09-25T10:15:55;100549.13;;;13.34;100.00
6500;BME280;3283;52.330;9.772;2022-09-25T10:18:26;100544.75;;;13.33;100.00
6500;BME280;3283;52.330;9.772;2022-09-25T10:20:58;100536.53;;;13.44;100.00
6500;BME280;3283;52.330;9.772;2022-09-25T10:23:40;100547.63;;;13.58;100.00
6500;BME280;3283;52.330;9.772;2022-09-25T10:26:26;100549.13;;;13.68;100.00
6500;BME280;3283;52.330;9.772;2022-09-25T10:28:52;100547.09;;;13.78;100.00
6500;BME280;3283;52.330;9.772;2022-09-25T10:31:23;100554.81;;;13.86;100.00
6500;BME280;3283;52.330;9.772;2022-09-25T10:39:04;100543.91;;;13.98;100.00
6500;BME280;3283;52.330;9.772;2022-09-25T10:41:44;100545.47;;;14.05;100.00
6500;BME280;3283;52.330;9.772;2022-09-25T10:44:22;100536.38;;;14.14;100.00
6500;BME280;3283;52.330;9.772;2022-09-25T10:46:52;100521.00;;;13.97;100.00
6500;BME280;3283;52.330;9.772;2022-09-25T10:49:47;100547.69;;;13.88;100.00
6500;BME280;3283;52.330;9.772;2022-09-25T10:53:00;100546.50;;;13.99;100.00
6500;BME280;3283;52.330;9.772;2022-09-25T10:58:02;100545.31;;;13.79;100.00
6500;BME280;3283;52.330;9.772;2022-09-25T11:00:30;100543.91;;;13.98;100.00
6500;BME280;3283;52.330;9.772;2022-09-25T11:03:00;100532.22;;;14.05;100.00
6500;BME280;3283;52.330;9.772;2022-09-25T11:05:32;100550.31;;;14.20;100.00
6500;BME280;3283;52.330;9.772;2022-09-25T11:08:02;100532.19;;;14.07;100.00
6500;BME280;3283;52.330;9.772;2022-09-25T11:10:32;100545.28;;;14.11;100.00
6500;BME280;3283;52.330;9.772;2022-09-25T11:13:21;100538.25;;;14.10;100.00
6500;BME280;3283;52.330;9.772;2022-09-25T11:15:51;100545.28;;;14.11;100.00
6500;BME280;3283;52.330;9.772;2022-09-25T11:21:03;100535.34;;;14.19;100.00
6500;BME280;3283;52.330;9.772;2022-09-25T11:23:39;100540.63;;;14.19;100.00
6500;BME280;3283;52.330;9.772;2022-09-25T11:26:14;100538.53;;;14.30;100.00
6500;BME280;3283;52.330;9.772;2022-09-25T11:31:20;100535.75;;;14.66;100.00
6500;BME280;3283;52.330;9.772;2022-09-25T11:33:54;100539.34;;;14.92;100.00
6500;BME280;3283;52.330;9.772;2022-09-25T11:36:30;100538.22;;;15.25;100.00
6500;BME280;3283;52.330;9.772;2022-09-25T11:39:02;100535.88;;;15.43;96.03
6500;BME280;3283;52.330;9.772;2022-09-25T11:42:52;100533.22;;;15.43;93.92
6500;BME280;3283;52.330;9.772;2022-09-25T11:44:54;100536.25;;;15.57;93.95
6500;BME280;3283;52.330;9.772;2022-09-25T11:47:42;100527.81;;;15.72;93.54
6500;BME280;3283;52.330;9.772;2022-09-25T11:50:13;100503.88;;;15.74;93.22
6500;BME280;3283;52.330;9.772;2022-09-25T11:57:55;100522.63;;;15.92;92.53
6500;BME280;3283;52.330;9.772;2022-09-25T12:01:02;100503.88;;;15.74;91.80
6500;BME280;3283;52.330;9.772;2022-09-25T12:04:32;100513.66;;;16.20;91.30
6500;BME280;3283;52.330;9.772;2022-09-25T12:14:52;100504.34;;;16.77;85.13
6500;BME280;3283;52.330;9.772;2022-09-25T12:20:31;100494.38;;;17.67;81.03
6500;BME280;3283;52.330;9.772;2022-09-25T12:36:17;100482.34;;;16.52;83.88
6500;BME280;3283;52.330;9.772;2022-09-25T12:38:58;100469.28;;;16.45;83.65
6500;BME280;3283;52.330;9.772;2022-09-25T12:41:34;100480.91;;;16.19;83.49
6500;BME280;3283;52.330;9.772;2022-09-25T12:44:17;100476.03;;;16.09;84.91
6500;BME280;3283;52.330;9.772;2022-09-25T12:46:53;100476.59;;;16.17;85.69
6500;BME280;3283;52.330;9.772;2022-09-25T12:49:32;100456.09;;;16.20;86.63
6500;BME280;3283;52.330;9.772;2022-09-25T12:52:08;100464.28;;;16.38;85.41
6500;BME280;3283;52.330;9.772;2022-09-25T12:57:34;100445.97;;;16.75;84.96
6500;BME280;3283;52.330;9.772;2022-09-25T13:00:16;100439.66;;;17.41;80.91
6500;BME280;3283;52.330;9.772;2022-09-25T13:06:08;100451.94;;;17.84;76.93
6500;BME280;3283;52.330;9.772;2022-09-25T13:09:05;100451.78;;;17.87;77.49
6500;BME280;3283;52.330;9.772;2022-09-25T13:14:01;100443.69;;;17.70;76.63
6500;BME280;3283;52.330;9.772;2022-09-25T13:16:27;100440.47;;;17.82;76.68
6500;BME280;3283;52.330;9.772;2022-09-25T13:19:29;100437.81;;;17.82;74.68
6500;BME280;3283;52.330;9.772;2022-09-25T13:22:05;100417.72;;;17.54;71.95
6500;BME280;3283;52.330;9.772;2022-09-25T13:24:49;100434.44;;;17.58;72.33
6500;BME280;3283;52.330;9.772;2022-09-25T13:27:21;100421.59;;;17.47;73.21
6500;BME280;3283;52.330;9.772;2022-09-25T13:29:59;100431.78;;;17.38;72.88
6500;BME280;3283;52.330;9.772;2022-09-25T13:32:27;100436.50;;;17.11;74.56
6500;BME280;3283;52.330;9.772;2022-09-25T13:35:05;100436.16;;;17.18;73.40
6500;BME280;3283;52.330;9.772;2022-09-25T13:37:35;100428.41;;;17.34;73.43
6500;BME280;3283;52.330;9.772;2022-09-25T13:40:14;100426.00;;;17.48;73.74
6500;BME280;3283;52.330;9.772;2022-09-25T13:48:44;100425.22;;;18.23;72.08
6500;BME280;3283;52.330;9.772;2022-09-25T13:53:58;100412.28;;;18.71;68.95
6500;BME280;3283;52.330;9.772;2022-09-25T14:02:34;100416.34;;;17.46;74.14
6500;BME280;3283;52.330;9.772;2022-09-25T14:05:02;100418.09;;;17.26;75.78
6500;BME280;3283;52.330;9.772;2022-09-25T14:07:29;100420.22;;;17.18;75.56
6500;BME280;3283;52.330;9.772;2022-09-25T14:09:56;100414.03;;;17.18;74.59
6500;BME280;3283;52.330;9.772;2022-09-25T14:12:31;100413.78;;;17.03;74.63
6500;BME280;3283;52.330;9.772;2022-09-25T14:15:08;100411.97;;;17.04;75.05
6500;BME280;3283;52.330;9.772;2022-09-25T14:17:42;100416.16;;;16.89;74.92
6500;BME280;3283;52.330;9.772;2022-09-25T14:20:26;100417.66;;;16.74;75.67
6500;BME280;3283;52.330;9.772;2022-09-25T14:22:56;100411.47;;;16.30;76.08
6500;BME280;3283;52.330;9.772;2022-09-25T14:25:29;100417.31;;;16.16;77.34
6500;BME280;3283;52.330;9.772;2022-09-25T14:27:59;100417.69;;;16.07;78.11
6500;BME280;3283;52.330;9.772;2022-09-25T14:30:25;100396.94;;;15.95;78.10
6500;BME280;3283;52.330;9.772;2022-09-25T14:33:38;100413.28;;;16.06;78.55
6500;BME280;3283;52.330;9.772;2022-09-25T14:36:11;100407.88;;;16.09;78.73
6500;BME280;3283;52.330;9.772;2022-09-25T14:46:58;100401.97;;;15.79;84.13
6500;BME280;3283;52.330;9.772;2022-09-25T14:49:34;100398.03;;;15.66;84.46
6500;BME280;3283;52.330;9.772;2022-09-25T14:52:06;100406.19;;;15.60;85.06
6500;BME280;3283;52.330;9.772;2022-09-25T14:54:36;100402.72;;;15.58;85.68
6500;BME280;3283;52.330;9.772;2022-09-25T14:57:05;100401.91;;;15.56;85.96
6500;BME280;3283;52.330;9.772;2022-09-25T14:59:48;100398.50;;;15.52;86.40
6500;BME280;3283;52.330;9.772;2022-09-25T15:02:48;100390.25;;;15.60;86.79
6500;BME280;3283;52.330;9.772;2022-09-25T15:07:49;100379.97;;;15.76;86.37
6500;BME280;3283;52.330;9.772;2022-09-25T15:13:24;100390.13;;;15.64;87.93
6500;BME280;3283;52.330;9.772;2022-09-25T15:15:55;100400.47;;;15.72;87.92
6500;BME280;3283;52.330;9.772;2022-09-25T15:18:49;100394.56;;;15.64;88.31
6500;BME280;3283;52.330;9.772;2022-09-25T15:21:32;100401.41;;;15.70;88.60
6500;BME280;3283;52.330;9.772;2022-09-25T15:24:04;100395.38;;;15.66;88.74
6500;BME280;3283;52.330;9.772;2022-09-25T15:26:31;100388.00;;;15.49;88.96
6500;BME280;3283;52.330;9.772;2022-09-25T15:28:58;100407.53;;;15.47;89.81
6500;BME280;3283;52.330;9.772;2022-09-25T15:31:23;100393.66;;;15.40;90.71